Flight Track Log - Related Links

Times and Time Zones

All times are in EDT time to prevent confusion due to time zone crossing. See the SKW6345 flight status page for this flight to view local times or setup timezone preferences in your user account.

Time Position Orientation Groundspeed Altitude Reporting Facility
EDT Latitude Longitude Course Direction KTS MPH feet Rate Location/Type
Wed 10:32:17 AM 33.4333 -111.9667 20° North 175 201 2,500  Level Phoenix TRACON
Wed 10:32:53 AM 33.4333 -111.9333 90° East 220 253 3,600 2,000 Climbing Phoenix TRACON
Wed 10:33:53 AM 33.4667 -111.8500 64° Northeast 271 312 5,700 2,100 Climbing Phoenix TRACON
Wed 10:34:53 AM 33.5167 -111.7833 48° Northeast 291 335 7,800 2,033 Climbing Phoenix TRACON
Wed 10:35:00 AM 33.9005 -111.7980 20° North  Level FlightAware Approximate
Wed 10:35:54 AM 33.6000 -111.7667 North 310 357 9,800  Level Phoenix TRACON
Wed 10:36:00 AM 34.0176 -111.7472 20° North  Level FlightAware Approximate
Wed 10:36:54 AM 33.7000 -111.7667 360° North 374 430 10,000  Level Phoenix TRACON
Wed 10:37:00 AM 34.1356 -111.6990 20° North  Level FlightAware Approximate
Wed 10:38:23 AM 33.8436 -111.7475 North 386 444 12,500  Level Albuquerque Center
Wed 10:39:24 AM 33.9489 -111.7372 North 386 444 14,400 2,064 Climbing Albuquerque Center
Wed 10:40:28 AM 34.0758 -111.7197 North 389 448 16,800 1,968 Climbing Albuquerque Center
Wed 10:41:29 AM 34.1697 -111.6628 27° Northeast 395 455 18,500 1,584 Climbing Albuquerque Center
Wed 10:42:33 AM 34.2522 -111.5686 43° Northeast 405 466 20,100 1,548 Climbing Albuquerque Center
Wed 10:43:33 AM 34.3364 -111.4722 43° Northeast 411 473 21,700 1,452 Climbing Albuquerque Center
Wed 10:44:37 AM 34.4208 -111.3744 44° Northeast 416 479 23,100 1,113 Climbing Albuquerque Center
Wed 10:45:37 AM 34.5078 -111.2733 44° Northeast 428 493 24,000 726 Climbing Albuquerque Center
Wed 10:46:41 AM 34.6178 -111.1433 44° Northeast 458 527 24,600 672 Climbing Albuquerque Center
Wed 10:47:42 AM 34.7142 -111.0319 44° Northeast 471 542 25,400 774 Climbing Albuquerque Center
Wed 10:48:45 AM 34.8103 -110.9186 44° Northeast 479 551 26,200 912 Climbing Albuquerque Center
Wed 10:49:47 AM 34.9072 -110.8025 44° Northeast 487 560 27,300 927 Climbing Albuquerque Center
Wed 10:50:48 AM 35.0139 -110.6750 44° Northeast 486 559 28,100 885 Climbing Albuquerque Center
Wed 10:51:49 AM 35.1086 -110.5658 43° Northeast 487 560 29,100 1,258 Climbing Albuquerque Center
Wed 10:52:52 AM 35.2178 -110.4356 44° Northeast 488 562 30,700 1,392 Climbing Albuquerque Center
Wed 10:53:54 AM 35.3047 -110.3308 44° Northeast 468 539 32,000 960 Climbing Albuquerque Center
Wed 10:54:57 AM 35.4083 -110.2039 45° Northeast 468 539 32,700 726 Climbing Albuquerque Center
Wed 10:55:58 AM 35.4992 -110.0939 45° Northeast 474 545 33,500 738 Climbing Albuquerque Center
Wed 10:56:59 AM 35.6053 -109.9653 45° Northeast 475 547 34,200 528 Climbing Albuquerque Center
Wed 10:58:03 AM 35.6978 -109.8519 45° Northeast 485 558 34,600 472 Climbing Albuquerque Center
Wed 10:59:06 AM 35.8075 -109.7181 45° Northeast 492 566 35,200 532 Climbing Albuquerque Center
Wed 11:00:07 AM 35.8869 -109.5864 53° Northeast 495 570 35,700 492 Climbing Albuquerque Center
Wed 11:01:08 AM 35.9678 -109.4225 59° Northeast 498 573 36,200 480 Climbing Albuquerque Center
Wed 11:02:12 AM 36.0383 -109.2833 58° Northeast 498 573 36,700 387 Climbing Albuquerque Center
Wed 11:03:12 AM 36.1294 -109.1650 46° Northeast 497 572 37,000 145 Climbing Albuquerque Center
Wed 11:04:16 AM 36.2447 -109.0314 43° Northeast 498 573 37,000  Level Albuquerque Center
Wed 11:05:16 AM 36.3447 -108.9161 43° Northeast 499 574 37,000  Level Albuquerque Center
Wed 11:06:36 AM 36.4914 -108.7422 44° Northeast 502 578 37,000  Level Denver Center
Wed 11:07:38 AM 36.5878 -108.6275 44° Northeast 501 577 37,000  Level Denver Center
Wed 11:08:40 AM 36.6853 -108.5128 43° Northeast 501 577 37,000  Level Denver Center
Wed 11:09:42 AM 36.7958 -108.3797 43° Northeast 498 573 37,000  Level Denver Center
Wed 11:10:00 AM 36.8012 -108.3775 43° Northeast  Level FlightAware Approximate
Wed 11:10:44 AM 36.8925 -108.2644 44° Northeast 498 573 37,000  Level Denver Center
Wed 11:11:46 AM 37.0039 -108.1317 44° Northeast 498 573 37,000  Level Denver Center
Wed 11:12:48 AM 37.1000 -108.0172 44° Northeast 498 573 37,000  Level Denver Center
Wed 11:14:52 AM 37.3061 -107.7661 43° Northeast 497 572 37,000  Level Denver Center
Wed 11:16:57 AM 37.5128 -107.5139 44° Northeast 498 573 37,000  Level Denver Center
Wed 11:17:59 AM 37.6244 -107.3792 44° Northeast 498 573 37,000  Level Denver Center
Wed 11:19:01 AM 37.7183 -107.2617 45° Northeast 498 573 37,000  Level Denver Center
Wed 11:20:03 AM 37.8222 -107.1356 44° Northeast 497 572 37,000  Level Denver Center
Wed 11:21:00 AM 37.8105 -107.1740 43° Northeast  Level FlightAware Approximate
Wed 11:21:05 AM 37.9300 -107.0000 45° Northeast 492 566 37,000  Level Denver Center
Wed 11:22:07 AM 38.0244 -106.8833 44° Northeast 492 566 36,800 -387 Descending Denver Center
Wed 11:23:09 AM 38.1300 -106.7492 45° Northeast 487 560 36,200 -532 Descending Denver Center
Wed 11:24:11 AM 38.2194 -106.6372 44° Northeast 476 548 35,700 -484 Descending Denver Center
Wed 11:25:13 AM 38.3083 -106.5258 45° Northeast 474 545 35,200 -339 Descending Denver Center
Wed 11:26:15 AM 38.4000 -106.4094 45° Northeast 473 544 35,000 -96 Descending Denver Center
Wed 11:27:18 AM 38.5058 -106.2750 45° Northeast 455 524 35,000 -624 Level Denver Center
Wed 11:28:20 AM 38.5908 -106.1653 45° Northeast 448 516 33,700 -1,403 Descending Denver Center
Wed 11:29:22 AM 38.6900 -106.0392 45° Northeast 475 547 32,100 -1,790 Descending Denver Center
Wed 11:30:24 AM 38.7844 -105.9183 45° Northeast 478 550 30,000 -2,516 Descending Denver Center
Wed 11:31:26 AM 38.8750 -105.8031 45° Northeast 467 537 26,900 -3,194 Descending Denver Center
Wed 11:32:28 AM 38.9742 -105.6739 45° Northeast 443 510 23,400 -3,145 Descending Denver Center
Wed 11:33:30 AM 39.0564 -105.5656 46° Northeast 429 494 20,400 -2,129 Descending Denver Center
Wed 11:34:32 AM 39.1308 -105.4672 46° Northeast 382 440 19,000 -1,306 Descending Denver Center
Wed 11:35:34 AM 39.2053 -105.3775 43° Northeast 346 398 17,700 -1,161 Descending Denver Center
Wed 11:36:36 AM 39.2586 -105.2903 52° Northeast 307 353 16,600 -1,200 Descending Denver Center
Wed 11:37:39 AM 39.3047 -105.1931 58° Northeast 296 341 15,200 -1,296 Descending Denver Center
Wed 11:38:41 AM 39.3583 -105.0881 57° Northeast 347 399 13,900 -1,065 Descending Denver Center
Wed 11:39:43 AM 39.4178 -104.9628 58° Northeast 377 434 13,000 -629 Descending Denver Center
Wed 11:40:45 AM 39.4747 -104.8767 49° Northeast 315 362 12,600 -1,113 Descending Denver Center
Wed 11:41:47 AM 39.5544 -104.8153 31° Northeast 309 356 10,700 -1,790 Descending Denver Center
Wed 11:42:49 AM 39.6258 -104.7594 31° Northeast 308 354 8,900 -1,355 Descending Denver Center
Wed 11:43:51 AM 39.6986 -104.7025 31° Northeast 289 333 7,900 -968 Descending Denver Center
Wed 11:44:53 AM 39.7539 -104.6656 27° Northeast 225 259 6,900 -968 Descending Denver Center
Wed 11:45:55 AM 39.8031 -104.6608 North 166 191 5,900 -720 Descending Denver Center
Wed 11:46:58 AM 39.8394 -104.6608 360° North 156 180 5,400 -476 Descending Denver Center

Login

Don't have an account? Register now (free) for customized features, flight alerts, and more!